Time;durP1;ratioP1;P1;durP2;ratioP2;P2;SDS_P1;SDS_P2;PMS_P1;PMS_P2;Temp;Humidity;BMP_temperature;BMP_pressure;BME280_temperature;BME280_humidity;BME280_pressure;Samples;Min_cycle;Max_cycle;Signal;HPM_P1;HPM_P2
2023/10/08 00:00:45;;;;;;;;;35.00;30.00;;;;;19.30;60.38;102226.50;5036446;28;45476;-40
2023/10/08 00:03:11;;;;;;;;;29.67;28.00;;;;;19.29;60.69;102230.19;5036369;27;46540;-41
2023/10/08 00:05:38;;;;;;;;;33.00;24.67;;;;;19.27;60.67;102228.69;5036159;28;45930;-41
2023/10/08 00:08:04;;;;;;;;;37.33;30.00;;;;;19.25;60.58;102238.78;5036587;27;45344;-41
2023/10/08 00:10:39;;;;;;;;;39.33;33.67;;;;;19.17;60.09;102235.09;5036695;27;45323;-40
2023/10/08 00:13:09;;;;;;;;;34.33;31.00;;;;;19.14;60.18;102242.69;5036499;27;45529;-40
2023/10/08 00:15:37;;;;;;;;;38.00;31.00;;;;;19.09;60.60;102243.19;5036728;27;45362;-39
2023/10/08 00:18:05;;;;;;;;;34.00;28.00;;;;;19.04;60.74;102237.41;5036344;27;45379;-42
2023/10/08 00:20:47;;;;;;;;;30.33;27.00;;;;;18.99;60.56;102239.78;5036427;27;45404;-41
2023/10/08 00:23:15;;;;;;;;;33.33;27.67;;;;;18.93;60.99;102238.59;5036184;28;46500;-40
2023/10/08 00:25:40;;;;;;;;;31.67;27.67;;;;;18.95;61.08;102238.41;5036173;28;45312;-40
2023/10/08 00:28:10;;;;;;;;;33.33;26.00;;;;;18.94;60.99;102244.81;5036296;28;45669;-41
2023/10/08 00:30:38;;;;;;;;;30.67;24.33;;;;;18.90;61.20;102251.56;5036535;27;45327;-41
2023/10/08 00:33:04;;;;;;;;;35.00;27.67;;;;;18.86;61.51;102247.50;5035872;27;45450;-40
2023/10/08 00:35:30;;;;;;;;;30.00;28.33;;;;;18.83;61.73;102242.44;5035734;27;45305;-40
2023/10/08 00:38:00;;;;;;;;;32.67;26.67;;;;;18.83;61.51;102240.56;5036110;28;45353;-40
2023/10/08 00:40:35;;;;;;;;;27.67;23.00;;;;;18.81;61.60;102247.16;5036235;28;45401;-41
2023/10/08 00:43:03;;;;;;;;;30.67;26.33;;;;;18.79;61.49;102252.69;5035730;28;45362;-40
2023/10/08 00:45:30;;;;;;;;;69.75;50.25;;;;;18.75;61.78;102239.72;5035459;28;45383;-41
2023/10/08 00:47:56;;;;;;;;;63.67;49.33;;;;;18.76;61.56;102249.50;5036034;27;45612;-41
2023/10/08 00:50:30;;;;;;;;;44.00;36.00;;;;;18.76;61.99;102249.50;5036129;27;45379;-41
2023/10/08 00:53:09;;;;;;;;;33.33;26.00;;;;;18.75;61.74;102245.09;5035707;27;45324;-40
2023/10/08 00:55:35;;;;;;;;;27.00;21.67;;;;;18.69;61.75;102239.38;5034962;28;45228;-41
2023/10/08 00:58:08;;;;;;;;;31.33;27.00;;;;;18.74;61.84;102248.81;5035567;27;45390;-40
2023/10/08 01:00:39;;;;;;;;;31.33;27.67;;;;;18.67;61.72;102240.53;5035657;28;45573;-41
2023/10/08 01:03:14;;;;;;;;;34.33;27.00;;;;;18.54;61.74;102219.41;5035562;27;45436;-41
2023/10/08 01:05:47;;;;;;;;;27.33;23.67;;;;;18.64;61.89;102236.28;5035753;27;45386;-43
2023/10/08 01:08:17;;;;;;;;;33.67;28.33;;;;;18.61;61.73;102239.31;5035819;27;45263;-41
2023/10/08 01:10:46;;;;;;;;;32.67;25.00;;;;;18.55;62.04;102231.03;5017547;28;45598;-41
2023/10/08 01:13:15;;;;;;;;;24.00;22.67;;;;;18.53;61.79;102233.88;5035415;27;45495;-41
2023/10/08 01:15:44;;;;;;;;;28.33;26.33;;;;;18.50;61.98;102234.22;5035372;27;45391;-41
2023/10/08 01:18:15;;;;;;;;;30.00;26.33;;;;;18.47;61.93;102229.16;5035699;27;45406;-40
2023/10/08 01:23:16;;;;;;;;;33.33;25.33;;;;;18.47;62.41;102229.16;5035365;27;45276;-41
2023/10/08 01:25:50;;;;;;;;;28.67;26.00;;;;;18.47;62.23;102228.31;5035362;27;46253;-42
2023/10/08 01:28:26;;;;;;;;;23.33;19.00;;;;;18.35;62.10;102207.03;5036003;28;45235;-42
2023/10/08 01:30:54;;;;;;;;;24.67;24.33;;;;;18.42;62.26;102223.41;5035860;27;45547;-42
2023/10/08 01:33:27;;;;;;;;;27.00;26.00;;;;;18.41;62.20;102221.69;5035116;28;46621;-42
2023/10/08 01:35:53;;;;;;;;;24.33;23.33;;;;;18.41;62.31;102224.41;5035501;28;45161;-40
2023/10/08 01:38:23;;;;;;;;;25.00;24.00;;;;;18.40;62.59;102220.88;5035373;28;45282;-43
2023/10/08 01:40:52;;;;;;;;;24.33;22.67;;;;;18.40;62.66;102217.31;5035284;28;45435;-41
2023/10/08 01:43:19;;;;;;;;;20.67;20.00;;;;;18.41;62.49;102210.94;5034971;27;46219;-40
2023/10/08 01:45:48;;;;;;;;;28.67;21.67;;;;;18.41;62.83;102216.31;5034708;28;45303;-42
2023/10/08 01:48:15;;;;;;;;;28.33;26.33;;;;;18.26;63.07;102193.72;5035265;27;45446;-40
2023/10/08 01:50:40;;;;;;;;;34.00;27.67;;;;;18.38;62.91;102208.56;5035176;27;45343;-40
2023/10/08 01:53:09;;;;;;;;;26.00;23.67;;;;;18.38;62.94;102208.56;5034742;28;46016;-41
2023/10/08 01:55:48;;;;;;;;;27.67;26.00;;;;;18.37;62.89;102212.25;5034082;28;45357;-41
2023/10/08 01:58:16;;;;;;;;;34.33;28.33;;;;;18.35;63.07;102208.91;5034833;28;45386;-41
2023/10/08 02:00:46;;;;;;;;;34.33;29.00;;;;;18.29;62.86;102196.09;5035009;28;45371;-41
2023/10/08 02:03:16;;;;;;;;;31.33;26.67;;;;;18.26;63.17;102194.53;5034661;28;46540;-40
2023/10/08 02:05:42;;;;;;;;;26.33;21.33;;;;;18.31;63.47;102200.28;5016500;27;45392;-40
2023/10/08 02:08:09;;;;;;;;;35.67;30.00;;;;;18.29;63.40;102196.94;5034913;28;45242;-43
2023/10/08 02:10:36;;;;;;;;;34.33;31.33;;;;;18.28;63.52;102181.75;5035045;28;45185;-40
2023/10/08 02:13:01;;;;;;;;;35.00;32.33;;;;;18.26;63.53;102186.47;5034706;28;45429;-41
2023/10/08 02:15:27;;;;;;;;;35.00;32.33;;;;;18.25;63.73;102183.94;5034279;28;45302;-40
2023/10/08 02:17:54;;;;;;;;;28.67;26.33;;;;;18.21;63.82;102180.72;5033265;28;45393;-41
2023/10/08 02:20:21;;;;;;;;;35.33;32.33;;;;;18.19;64.01;102182.72;5034804;27;45416;-40
2023/10/08 02:22:49;;;;;;;;;44.00;32.00;;;;;18.15;64.35;102176.81;5033621;28;45420;-41
2023/10/08 02:25:14;;;;;;;;;33.33;31.33;;;;;18.15;64.35;102175.97;5034194;28;45229;-41
2023/10/08 02:27:40;;;;;;;;;42.33;33.33;;;;;18.12;64.76;102177.16;5034564;28;45324;-41
2023/10/08 02:30:06;;;;;;;;;36.00;30.67;;;;;18.12;64.62;102181.69;5034619;28;45364;-39
2023/10/08 02:32:32;;;;;;;;;40.33;31.67;;;;;18.11;64.64;102185.38;5034374;28;45333;-40
2023/10/08 02:34:57;;;;;;;;;36.33;29.33;;;;;18.12;64.61;102187.09;5034230;27;45385;-41
2023/10/08 02:37:23;;;;;;;;;39.33;31.33;;;;;18.11;64.81;102182.69;5034388;27;45334;-41
2023/10/08 02:39:48;;;;;;;;;39.67;31.67;;;;;18.06;64.87;102172.41;5016480;28;45533;-41
2023/10/08 02:42:14;;;;;;;;;40.33;32.33;;;;;18.01;65.03;102174.75;5034192;28;46258;-40
2023/10/08 02:44:43;;;;;;;;;35.33;31.33;;;;;17.98;65.13;102174.22;5034047;28;45355;-40
2023/10/08 02:47:11;;;;;;;;;40.33;33.33;;;;;17.97;65.19;102177.91;5034361;28;45360;-41
2023/10/08 02:49:40;;;;;;;;;42.00;34.00;;;;;17.98;65.31;102179.59;5034282;28;45321;-40
2023/10/08 02:52:08;;;;;;;;;40.00;33.33;;;;;17.86;64.96;102161.00;5034154;27;47198;-40
2023/10/08 02:54:36;;;;;;;;;38.33;31.67;;;;;17.92;64.85;102176.53;5035211;27;45250;-41
2023/10/08 02:57:10;;;;;;;;;37.33;30.33;;;;;17.92;64.84;102189.16;5034258;28;45271;-41
2023/10/08 02:59:42;;;;;;;;;39.00;33.00;;;;;17.87;65.02;102183.41;5034286;27;45384;-41
2023/10/08 03:02:18;;;;;;;;;44.33;33.67;;;;;17.81;65.02;102181.34;5033794;28;45298;-41
2023/10/08 03:04:45;;;;;;;;;37.00;32.00;;;;;17.79;65.51;102183.38;5033977;28;45294;-40
2023/10/08 03:07:21;;;;;;;;;35.00;28.33;;;;;17.69;65.69;102183.44;5034078;27;45321;-40
2023/10/08 03:09:50;;;;;;;;;36.33;28.33;;;;;17.64;65.92;102189.28;5034205;28;45365;-40
2023/10/08 03:12:18;;;;;;;;;30.00;26.67;;;;;17.60;66.03;102179.84;5016375;28;46149;-40
2023/10/08 03:15:00;;;;;;;;;34.67;31.00;;;;;17.45;66.23;102165.28;5033668;28;45362;-41
2023/10/08 03:17:26;;;;;;;;;36.33;31.67;;;;;17.51;66.35;102171.88;5033919;27;45287;-41
2023/10/08 03:19:52;;;;;;;;;35.67;29.33;;;;;17.57;66.01;102180.19;5033913;28;45211;-39
2023/10/08 03:22:19;;;;;;;;;29.00;26.00;;;;;17.55;66.14;102178.63;5033400;27;46245;-40
2023/10/08 03:24:48;;;;;;;;;35.00;29.00;;;;;17.54;66.34;102183.16;5015875;27;45322;-42
2023/10/08 03:27:20;;;;;;;;;26.00;25.33;;;;;17.50;66.39;102180.97;5033591;27;45561;-43
2023/10/08 03:29:45;;;;;;;;;37.33;29.00;;;;;17.42;66.60;102174.50;5035952;28;45391;-40
2023/10/08 03:32:15;;;;;;;;;36.00;26.67;;;;;17.38;66.48;102173.13;5018703;27;46204;-40
2023/10/08 03:34:49;;;;;;;;;32.33;25.67;;;;;17.50;65.89;102186.34;5036616;28;45253;-41
2023/10/08 03:37:29;;;;;;;;;31.33;28.00;;;;;17.50;65.99;102187.19;5036701;28;45397;-41
2023/10/08 03:40:07;;;;;;;;;25.33;23.67;;;;;17.48;65.88;102193.69;5036540;28;45241;-40
2023/10/08 03:42:40;;;;;;;;;30.67;27.67;;;;;17.40;65.97;102191.78;5036497;27;46178;-40
2023/10/08 03:45:12;;;;;;;;;28.67;28.00;;;;;17.40;66.16;102191.78;5035847;28;45514;-41
2023/10/08 03:47:46;;;;;;;;;26.33;24.33;;;;;17.37;65.98;102197.50;5036454;27;45404;-41
2023/10/08 03:50:16;;;;;;;;;28.00;26.67;;;;;17.32;66.48;102195.28;5036696;27;45429;-41
2023/10/08 03:52:43;;;;;;;;;29.33;26.67;;;;;17.27;65.99;102202.09;5019193;28;46359;-41
2023/10/08 03:55:26;;;;;;;;;32.33;27.00;;;;;17.25;66.33;102201.44;5036396;27;45309;-40
2023/10/08 03:57:56;;;;;;;;;33.67;26.33;;;;;17.25;66.60;102198.75;5036351;28;45333;-41
2023/10/08 04:00:28;;;;;;;;;27.67;22.33;;;;;17.20;66.38;102191.97;5036425;27;45217;-40
2023/10/08 04:03:07;;;;;;;;;30.00;26.00;;;;;17.07;66.72;102175.41;5036356;27;47174;-39
2023/10/08 04:05:44;;;;;;;;;35.33;25.33;;;;;17.18;66.46;102199.34;5036315;28;45340;-41
2023/10/08 04:08:42;;;;;;;;;28.67;28.00;;;;;17.19;66.07;102205.56;5036729;27;45397;-41
2023/10/08 04:11:21;;;;;;;;;33.00;26.67;;;;;17.05;66.39;102188.13;5036405;28;45464;-41
2023/10/08 04:13:48;;;;;;;;;26.33;24.33;;;;;17.10;66.41;102199.28;5036809;27;45523;-41
2023/10/08 04:16:18;;;;;;;;;27.67;23.33;;;;;17.05;66.24;102201.59;5036036;27;45211;-41
2023/10/08 04:18:44;;;;;;;;;26.33;24.33;;;;;17.04;66.90;102196.38;5036266;27;45359;-41
2023/10/08 04:21:12;;;;;;;;;26.33;23.00;;;;;17.01;66.69;102196.66;5035910;27;45434;-41
2023/10/08 04:23:39;;;;;;;;;29.00;25.67;;;;;17.01;66.78;102197.50;5036056;28;46253;-40
2023/10/08 04:26:06;;;;;;;;;31.00;23.67;;;;;16.97;66.95;102193.44;5035771;27;45161;-40
2023/10/08 04:28:35;;;;;;;;;30.67;27.00;;;;;16.94;66.73;102197.28;5036166;27;45438;-40
2023/10/08 04:31:14;;;;;;;;;26.67;24.33;;;;;16.89;67.07;102179.91;5036211;28;45409;-40
2023/10/08 04:33:40;;;;;;;;;26.00;22.00;;;;;16.76;67.23;102168.69;5017847;27;47062;-41
2023/10/08 04:36:07;;;;;;;;;27.67;22.33;;;;;16.88;67.15;102191.66;5018636;28;45359;-40
2023/10/08 04:38:39;;;;;;;;;28.33;27.33;;;;;16.88;66.68;102194.34;5036668;27;45418;-41
2023/10/08 04:41:09;;;;;;;;;29.67;23.33;;;;;16.85;66.89;102187.44;5035576;28;45302;-42
2023/10/08 04:43:38;;;;;;;;;23.00;20.33;;;;;16.82;67.20;102193.13;5035588;28;45536;-41
2023/10/08 04:46:05;;;;;;;;;31.67;25.33;;;;;16.79;67.11;102192.59;5035888;27;45394;-41
2023/10/08 04:48:32;;;;;;;;;28.33;22.33;;;;;16.79;67.53;102187.22;5036098;27;45385;-40
2023/10/08 04:50:59;;;;;;;;;26.67;24.00;;;;;16.76;67.11;102184.81;5036035;27;45400;-43
2023/10/08 04:53:35;;;;;;;;;31.00;23.67;;;;;16.79;67.33;102195.28;5035670;28;46364;-40
2023/10/08 04:56:05;;;;;;;;;31.67;25.00;;;;;16.76;67.46;102195.56;5035702;27;45438;-41
2023/10/08 04:58:36;;;;;;;;;26.33;18.33;;;;;16.74;67.67;102193.06;5035938;27;45256;-38
2023/10/08 05:01:17;;;;;;;;;31.00;23.67;;;;;16.70;67.26;102184.41;5035992;28;45400;-41
2023/10/08 05:06:39;;;;;;;;;28.00;21.67;;;;;16.63;67.96;102193.22;5035669;27;45865;-41
2023/10/08 05:17:21;;;;;;;;;31.00;26.67;;;;;16.46;68.39;102186.81;5035221;27;45340;-41
2023/10/08 05:19:56;;;;;;;;;21.33;20.00;;;;;16.46;68.17;102195.72;5035392;27;45338;-41
2023/10/08 05:41:27;;;;;;;;;31.33;21.67;;;;;16.38;68.13;102195.63;5035819;28;45435;-41
2023/10/08 05:44:13;;;;;;;;;28.00;25.00;;;;;16.24;68.68;102176.50;5036146;28;45313;-41
2023/10/08 05:46:46;;;;;;;;;27.00;21.33;;;;;16.32;68.75;102209.66;5035330;28;46418;-41
2023/10/08 06:10:41;;;;;;;;;21.00;18.00;;;;;16.32;68.62;102214.19;4953703;28;45480;-39
2023/10/08 06:18:28;;;;;;;;;27.33;24.67;;;;;16.29;69.12;102212.63;4994196;28;45264;-43
2023/10/08 06:21:07;;;;;;;;;29.33;23.00;;;;;16.32;68.54;102222.25;5034113;27;45257;-40
2023/10/08 06:23:35;;;;;;;;;24.33;21.33;;;;;16.35;68.33;102227.28;5034604;28;45356;-42
2023/10/08 06:28:36;;;;;;;;;29.00;22.67;;;;;16.42;68.52;102233.78;5034328;27;45994;-44
2023/10/08 06:31:07;;;;;;;;;22.00;19.00;;;;;16.44;68.35;102231.81;5034319;27;45209;-40
2023/10/08 06:33:33;;;;;;;;;24.67;21.67;;;;;16.46;68.23;102232.47;5016343;28;45406;-41
2023/10/08 06:36:05;;;;;;;;;27.00;24.67;;;;;16.48;68.32;102233.19;5034831;27;45232;-40
2023/10/08 06:38:34;;;;;;;;;26.00;26.00;;;;;16.49;68.26;102226.81;5016421;27;47001;-41
2023/10/08 06:41:08;;;;;;;;;37.67;31.33;;;;;16.56;68.55;102238.66;5034369;28;45426;-40
2023/10/08 06:43:36;;;;;;;;;42.67;34.00;;;;;16.61;68.35;102239.06;5034439;27;45419;-41
2023/10/08 06:46:03;;;;;;;;;29.33;29.00;;;;;16.68;67.80;102239.28;5016493;27;45370;-40
2023/10/08 06:48:29;;;;;;;;;25.67;25.00;;;;;16.72;67.54;102238.00;5033979;28;46353;-41
2023/10/08 06:50:58;;;;;;;;;26.00;23.00;;;;;16.75;67.97;102239.56;5016251;28;45699;-41
2023/10/08 06:53:24;;;;;;;;;24.67;23.00;;;;;16.78;67.87;102242.81;5034348;27;45346;-41
2023/10/08 06:55:56;;;;;;;;;34.00;26.33;;;;;16.83;68.02;102240.50;5034278;27;45256;-38
2023/10/08 06:58:23;;;;;;;;;30.00;27.00;;;;;16.83;67.59;102237.81;5033955;28;46348;-40
2023/10/08 07:00:48;;;;;;;;;28.00;21.33;;;;;16.93;67.57;102241.28;5033793;28;45635;-41
2023/10/08 07:03:15;;;;;;;;;35.33;29.00;;;;;16.93;67.23;102246.66;5034278;27;45481;-41
2023/10/08 07:05:54;;;;;;;;;30.00;25.33;;;;;16.98;67.52;102239.97;5037256;28;45426;-41
2023/10/08 07:08:23;;;;;;;;;34.67;28.67;;;;;16.95;67.53;102236.63;5036799;27;46266;-41
2023/10/08 07:10:49;;;;;;;;;27.00;24.67;;;;;16.99;67.34;102230.94;5036867;27;45419;-44
2023/10/08 07:13:17;;;;;;;;;33.67;27.67;;;;;17.05;67.01;102243.75;5036956;28;45484;-41
2023/10/08 07:15:45;;;;;;;;;24.33;19.33;;;;;17.03;67.30;102251.16;5019544;27;45208;-41
2023/10/08 07:18:21;;;;;;;;;27.67;26.00;;;;;17.03;67.00;102249.31;5036671;28;47188;-41
2023/10/08 07:20:53;;;;;;;;;30.00;27.00;;;;;17.02;67.03;102252.97;5036602;28;45377;-40
2023/10/08 07:23:18;;;;;;;;;29.67;22.00;;;;;17.11;66.67;102249.38;5036899;27;45277;-43
2023/10/08 07:25:51;;;;;;;;;25.33;23.33;;;;;17.11;66.92;102257.44;5019104;28;45401;-41
2023/10/08 07:28:19;;;;;;;;;29.00;26.33;;;;;17.16;66.71;102252.44;5037036;27;46032;-41
2023/10/08 07:30:45;;;;;;;;;35.00;27.33;;;;;17.26;66.34;102251.53;5036642;28;45308;-42
2023/10/08 07:33:17;;;;;;;;;34.67;27.67;;;;;17.21;65.48;102236.69;5018701;28;45519;-42
2023/10/08 07:36:11;;;;;;;;;31.67;28.00;;;;;17.32;66.22;102248.22;5036879;28;45219;-41
2023/10/08 07:38:37;;;;;;;;;29.67;26.33;;;;;17.35;65.25;102237.16;5036439;27;47103;-42
2023/10/08 07:41:05;;;;;;;;;26.67;24.00;;;;;17.43;65.46;102246.13;5036458;27;45461;-41
2023/10/08 07:43:32;;;;;;;;;26.00;24.33;;;;;17.45;65.58;102244.16;5036926;27;45254;-42
2023/10/08 07:45:58;;;;;;;;;26.00;23.33;;;;;17.51;65.34;102245.34;5018842;28;45580;-42
2023/10/08 07:48:29;;;;;;;;;31.33;23.67;;;;;17.56;65.15;102240.34;5036313;28;46217;-41
2023/10/08 07:50:56;;;;;;;;;24.33;23.00;;;;;17.61;64.95;102237.19;5036625;28;45306;-42
2023/10/08 07:53:24;;;;;;;;;20.67;19.67;;;;;17.73;64.59;102245.84;5035709;28;45441;-41
2023/10/08 07:55:51;;;;;;;;;28.67;26.33;;;;;17.83;64.40;102250.19;5036293;28;45479;-41
2023/10/08 07:58:17;;;;;;;;;28.00;25.00;;;;;17.95;64.16;102246.22;5018525;27;48356;-42
2023/10/08 08:00:51;;;;;;;;;29.33;25.67;;;;;18.11;63.52;102250.00;5036078;28;45290;-42
2023/10/08 08:03:18;;;;;;;;;26.33;23.33;;;;;18.28;63.00;102245.56;5036264;27;45441;-43
2023/10/08 08:05:44;;;;;;;;;32.00;28.67;;;;;18.41;62.73;102259.41;5036353;28;45507;-44
2023/10/08 08:08:09;;;;;;;;;34.33;28.67;;;;;18.53;62.32;102250.06;5034537;27;46643;-42
2023/10/08 08:10:38;;;;;;;;;35.33;31.67;;;;;18.78;62.16;102253.72;5036282;28;45487;-46
2023/10/08 08:13:06;;;;;;;;;36.67;29.67;;;;;19.00;60.82;102260.34;5018377;28;45392;-42
2023/10/08 08:15:36;;;;;;;;;33.67;27.33;;;;;19.11;60.46;102243.00;5036324;27;45381;-41
2023/10/08 08:18:05;;;;;;;;;33.33;24.00;;;;;19.46;59.37;102258.03;5036004;27;47015;-41
2023/10/08 08:20:43;;;;;;;;;30.67;29.33;;;;;20.13;58.25;102255.97;5035811;28;45418;-41
2023/10/08 08:23:08;;;;;;;;;34.00;30.67;;;;;21.62;54.83;102255.88;5036100;27;45433;-41
2023/10/08 08:26:07;;;;;;;;;31.00;29.00;;;;;22.84;52.22;102250.09;5036047;28;45211;-41
2023/10/08 08:28:33;;;;;;;;;28.67;25.33;;;;;23.98;48.32;102231.13;5035925;27;46357;-42
2023/10/08 08:31:13;;;;;;;;;26.33;26.00;;;;;24.92;47.23;102246.84;5036005;28;45393;-42
2023/10/08 08:36:24;;;;;;;;;33.33;28.00;;;;;26.13;43.75;102245.66;5036464;28;45173;-45
2023/10/08 08:38:50;;;;;;;;;28.00;27.25;;;;;26.15;43.80;102242.69;5036008;27;47420;-44
2023/10/08 08:41:20;;;;;;;;;27.25;23.75;;;;;26.24;43.11;102255.03;5035862;28;45245;-42
2023/10/08 08:43:56;;;;;;;;;25.00;23.75;;;;;26.43;43.47;102247.88;5035979;27;45436;-44
2023/10/08 08:46:28;;;;;;;;;29.75;27.25;;;;;26.72;42.69;102246.50;5035866;27;45551;-41
2023/10/08 08:48:55;;;;;;;;;31.00;27.50;;;;;26.97;42.34;102241.13;5035573;28;46231;-44
2023/10/08 08:51:23;;;;;;;;;30.00;27.00;;;;;27.23;41.41;102242.88;5035807;27;45399;-42
2023/10/08 08:53:49;;;;;;;;;26.75;23.75;;;;;27.67;41.52;102251.13;5035841;27;45277;-43
2023/10/08 08:56:15;;;;;;;;;28.00;24.00;;;;;28.26;39.88;102244.22;5036125;27;45480;-41
2023/10/08 08:58:42;;;;;;;;;27.20;22.20;;;;;29.13;38.25;102244.81;5035399;28;46406;-42
2023/10/08 09:01:12;;;;;;;;;27.40;21.80;;;;;29.95;36.88;102246.81;5035631;28;45427;-42
2023/10/08 09:03:39;;;;;;;;;26.40;23.40;;;;;30.76;34.64;102242.22;5035614;27;45354;-43
2023/10/08 09:06:05;;;;;;;;;27.00;22.25;;;;;31.35;35.02;102244.69;5035727;28;45611;-42
2023/10/08 09:08:41;;;;;;;;;24.20;21.00;;;;;31.79;33.59;102241.00;5035461;27;46977;-42
2023/10/08 09:11:08;;;;;;;;;21.40;21.20;;;;;32.26;32.91;102242.47;5035432;28;45230;-46
2023/10/08 09:13:34;;;;;;;;;29.60;23.00;;;;;32.71;32.14;102239.47;5035615;28;45413;-42
2023/10/08 09:16:16;;;;;;;;;25.40;23.60;;;;;33.11;32.81;102245.66;5035581;28;45388;-42
2023/10/08 09:18:45;;;;;;;;;22.00;20.60;;;;;33.46;30.15;102236.91;5035280;27;45302;-42
2023/10/08 09:21:13;;;;;;;;;20.80;20.40;;;;;33.88;30.29;102231.38;5034316;28;45476;-42
2023/10/08 09:23:43;;;;;;;;;27.80;23.60;;;;;34.23;29.56;102238.19;5035447;27;45297;-42
2023/10/08 09:26:10;;;;;;;;;26.80;23.80;;;;;34.59;29.66;102232.81;5034836;27;45450;-42
2023/10/08 09:28:38;;;;;;;;;23.60;21.00;;;;;34.98;29.59;102219.38;5035086;28;45468;-45
2023/10/08 09:31:06;;;;;;;;;25.40;22.60;;;;;35.53;28.22;102234.31;5016794;28;45450;-42
2023/10/08 09:33:32;;;;;;;;;22.60;20.00;;;;;35.62;27.42;102226.28;5035213;28;45281;-43
2023/10/08 09:36:02;;;;;;;;;24.25;20.00;;;;;35.88;27.39;102235.34;5035422;28;45361;-43
2023/10/08 09:38:30;;;;;;;;;23.20;20.20;;;;;36.04;28.24;102231.44;5035059;27;45177;-42
2023/10/08 09:40:56;;;;;;;;;21.80;20.60;;;;;36.20;26.80;102230.25;5035243;27;45271;-45
2023/10/08 09:43:26;;;;;;;;;20.60;19.40;;;;;36.15;27.02;102241.34;5035228;28;45365;-42
2023/10/08 09:46:14;;;;;;;;;24.40;20.20;;;;;36.48;27.83;102237.06;5035245;27;45278;-42
2023/10/08 09:48:41;;;;;;;;;20.60;20.60;;;;;36.65;26.64;102230.31;5034728;27;45266;-42
2023/10/08 09:51:10;;;;;;;;;22.40;19.60;;;;;36.89;25.75;102228.47;5036189;27;45257;-41
2023/10/08 09:54:10;;;;;;;;;20.80;20.20;;;;;36.93;25.52;102221.28;5034699;28;45275;-41
2023/10/08 09:56:36;;;;;;;;;24.80;22.40;;;;;37.08;25.33;102225.03;5034946;28;45416;-43
2023/10/08 09:59:02;;;;;;;;;19.80;16.00;;;;;37.14;24.58;102223.88;5034801;28;45979;-44
2023/10/08 10:01:31;;;;;;;;;26.20;23.20;;;;;37.03;25.39;102217.59;5034773;27;45447;-41
2023/10/08 10:03:59;;;;;;;;;32.20;27.80;;;;;36.77;25.51;102208.59;5034720;28;45448;-41
2023/10/08 10:06:26;;;;;;;;;23.00;21.60;;;;;36.42;26.12;102212.41;5034698;28;45328;-41
2023/10/08 10:08:57;;;;;;;;;23.00;22.20;;;;;36.06;26.27;102203.44;5034783;28;45414;-42
2023/10/08 10:11:26;;;;;;;;;22.00;22.00;;;;;35.64;26.53;102207.44;5034541;27;45350;-41
2023/10/08 10:14:02;;;;;;;;;21.00;21.00;;;;;35.31;27.40;102200.53;5034674;28;45192;-41
2023/10/08 10:16:28;;;;;;;;;21.60;20.80;;;;;35.50;27.86;102198.88;5034958;28;45235;-42
2023/10/08 10:18:57;;;;;;;;;24.40;23.60;;;;;35.49;27.81;102205.53;5034261;28;46273;-42
2023/10/08 10:21:29;;;;;;;;;27.60;25.00;;;;;35.59;27.95;102204.69;5034167;28;45464;-41
2023/10/08 10:23:56;;;;;;;;;22.00;19.00;;;;;35.54;27.17;102211.06;5034692;27;45347;-41
2023/10/08 10:26:50;;;;;;;;;21.40;19.20;;;;;35.53;27.37;102208.56;5034253;27;45856;-42
2023/10/08 10:29:19;;;;;;;;;26.00;21.20;;;;;35.62;27.16;102202.19;5034021;28;47036;-43
2023/10/08 10:31:53;;;;;;;;;22.60;21.40;;;;;35.69;26.51;102196.34;5034473;28;45474;-43
2023/10/08 10:34:28;;;;;;;;;22.00;21.00;;;;;35.91;26.67;102204.31;5034539;28;45268;-42
2023/10/08 10:36:56;;;;;;;;;16.80;15.40;;;;;36.18;27.72;102206.72;5034912;27;45436;-42
2023/10/08 10:39:26;;;;;;;;;22.00;19.40;;;;;36.56;29.78;102198.78;5032631;28;46076;-43
2023/10/08 10:41:57;;;;;;;;;15.80;15.20;;;;;36.84;25.05;102200.78;5034378;27;45346;-42
2023/10/08 10:44:23;;;;;;;;;18.60;11.00;;;;;37.61;24.21;102191.81;5034515;27;45334;-42
2023/10/08 10:46:58;;;;;;;;;14.80;12.60;;;;;39.09;22.63;102200.91;5034354;28;45468;-44
2023/10/08 10:49:32;;;;;;;;;14.60;13.80;;;;;41.02;20.37;102203.56;5033391;28;46281;-42
2023/10/08 10:51:57;;;;;;;;;21.60;15.20;;;;;42.47;19.09;102197.19;5034240;27;45353;-41
2023/10/08 10:54:24;;;;;;;;;14.50;12.75;;;;;43.20;19.97;102205.72;5034069;28;45329;-41
2023/10/08 10:57:09;;;;;;;;;11.60;11.00;;;;;43.54;18.79;102202.81;5034166;28;45450;-42
2023/10/08 10:59:37;;;;;;;;;12.60;11.80;;;;;43.87;21.39;102199.38;5033928;27;45431;-42
2023/10/08 11:02:30;;;;;;;;;10.20;9.40;;;;;43.99;17.79;102193.00;5034032;28;45242;-43
2023/10/08 11:05:07;;;;;;;;;13.80;12.40;;;;;43.98;17.86;102197.00;5034070;27;45336;-42
2023/10/08 11:07:33;;;;;;;;;17.60;12.80;;;;;43.99;17.71;102207.84;5033989;27;45404;-42
2023/10/08 11:09:59;;;;;;;;;17.80;15.80;;;;;44.08;17.85;102200.22;5033424;28;46156;-42
2023/10/08 11:12:42;;;;;;;;;10.60;7.40;;;;;44.38;17.18;102202.19;5034125;28;45216;-43
2023/10/08 11:15:15;;;;;;;;;14.40;11.60;;;;;44.60;16.73;102206.59;5033834;28;45376;-43
2023/10/08 11:17:40;;;;;;;;;14.20;9.80;;;;;44.87;16.83;102199.59;5035322;27;45344;-44
2023/10/08 11:20:24;;;;;;;;;15.25;14.25;;;;;45.04;17.08;102197.44;5033152;28;45990;-43
2023/10/08 11:22:51;;;;;;;;;10.80;10.00;;;;;45.21;17.77;102187.16;5033942;27;45421;-42
2023/10/08 11:25:27;;;;;;;;;11.80;10.60;;;;;45.25;16.40;102199.34;5033656;27;45385;-43
2023/10/08 11:28:01;;;;;;;;;10.40;9.60;;;;;44.20;17.07;102193.03;5034110;27;45297;-41
2023/10/08 11:30:31;;;;;;;;;11.80;10.40;;;;;43.80;17.42;102193.44;5033266;27;45680;-40
2023/10/08 11:33:00;;;;;;;;;18.00;15.20;;;;;43.23;17.50;102189.06;5033597;27;45418;-39
2023/10/08 11:35:28;;;;;;;;;11.40;11.40;;;;;42.75;18.03;102195.75;5017095;27;45441;-43
2023/10/08 11:38:00;;;;;;;;;14.00;11.20;;;;;41.87;18.85;102190.38;5033645;28;45716;-41
2023/10/08 11:40:29;;;;;;;;;14.40;14.40;;;;;41.34;19.61;102188.47;5033676;27;46897;-42
2023/10/08 11:43:03;;;;;;;;;10.60;10.00;;;;;40.93;19.70;102189.53;5033457;28;45359;-41
2023/10/08 11:45:37;;;;;;;;;13.60;13.40;;;;;40.45;20.23;102178.13;5033666;27;45250;-40
2023/10/08 11:48:11;;;;;;;;;11.80;10.40;;;;;39.96;20.32;102179.78;5033636;27;45462;-41
2023/10/08 11:50:38;;;;;;;;;20.60;16.60;;;;;39.58;20.87;102160.47;5035592;27;46883;-44
2023/10/08 11:53:05;;;;;;;;;13.20;13.20;;;;;39.00;21.29;102163.78;5036414;28;45375;-40
2023/10/08 11:55:36;;;;;;;;;15.00;12.20;;;;;38.54;22.06;102157.00;5036510;28;45293;-41
2023/10/08 11:58:11;;;;;;;;;9.40;9.20;;;;;37.74;22.42;102152.22;5019040;27;45327;-42
2023/10/08 12:00:45;;;;;;;;;14.20;10.80;;;;;37.01;23.01;102158.81;5036384;28;45464;-41
2023/10/08 12:03:18;;;;;;;;;13.20;12.60;;;;;36.48;24.19;102151.13;5036391;27;45328;-53
2023/10/08 12:05:59;;;;;;;;;14.20;12.80;;;;;36.02;24.48;102149.72;5036224;28;45419;-41
2023/10/08 12:08:27;;;;;;;;;16.40;11.60;;;;;35.60;25.26;102150.97;5036589;27;45447;-40
2023/10/08 12:10:54;;;;;;;;;14.00;13.00;;;;;35.19;25.31;102138.03;5036119;28;46232;-45
2023/10/08 12:13:24;;;;;;;;;14.80;13.60;;;;;35.02;25.63;102139.44;5036194;28;45444;-51
2023/10/08 12:15:51;;;;;;;;;11.20;11.00;;;;;34.88;26.22;102134.44;5036619;27;45343;-52
2023/10/08 12:18:25;;;;;;;;;19.40;17.60;;;;;34.89;25.84;102133.34;5036000;28;45345;-50
2023/10/08 12:20:51;;;;;;;;;15.00;14.00;;;;;34.91;26.02;102119.22;5035727;27;45408;-51
2023/10/08 12:23:26;;;;;;;;;12.75;11.75;;;;;34.66;26.06;102115.38;5035953;28;45254;-44
2023/10/08 12:25:59;;;;;;;;;12.20;12.20;;;;;34.50;26.10;102114.50;5036163;27;45207;-46
2023/10/08 12:28:27;;;;;;;;;13.00;12.60;;;;;34.29;26.65;102098.97;5036240;27;45467;-49